createdAt,value
2018-11-06T00:03:48.510Z,26.40
2018-11-06T00:08:52.599Z,26.87
2018-11-06T00:13:56.423Z,27.10
2018-11-06T00:19:00.310Z,25.67
2018-11-06T00:24:05.257Z,26.83
2018-11-06T00:29:09.097Z,25.10
2018-11-06T00:34:13.696Z,24.20
2018-11-06T00:39:17.678Z,24.30
2018-11-06T00:44:21.509Z,24.07
2018-11-06T00:49:25.384Z,24.10
2018-11-06T00:54:29.245Z,25.37
2018-11-06T00:59:33.345Z,25.97
2018-11-06T01:04:37.185Z,24.17
2018-11-06T01:09:41.029Z,27.03
2018-11-06T01:14:44.869Z,29.03
2018-11-06T01:19:48.970Z,29.20
2018-11-06T01:24:52.805Z,29.07
2018-11-06T01:29:56.906Z,27.35
2018-11-06T01:35:00.973Z,24.27
2018-11-06T01:40:06.234Z,24.02
2018-11-06T01:45:11.941Z,25.47
2018-11-06T01:50:16.913Z,29.60
2018-11-06T01:55:20.739Z,32.17
2018-11-06T02:00:24.813Z,31.37
2018-11-06T02:05:28.649Z,31.37
2018-11-06T02:10:32.528Z,31.03
2018-11-06T02:15:36.612Z,29.17
2018-11-06T02:20:40.458Z,27.20
2018-11-06T02:25:44.546Z,29.80
2018-11-06T02:30:48.662Z,29.30
2018-11-06T02:35:53.004Z,30.77
2018-11-06T02:40:56.838Z,27.07
2018-11-06T02:46:00.683Z,31.70
2018-11-06T02:51:04.540Z,29.90
2018-11-06T02:56:08.388Z,27.27
2018-11-06T03:01:12.232Z,29.03
2018-11-06T03:06:16.072Z,31.23
2018-11-06T03:11:19.901Z,31.70
2018-11-06T03:16:23.966Z,28.57
2018-11-06T03:21:28.042Z,28.70
2018-11-06T03:26:31.893Z,30.40
2018-11-06T03:31:35.726Z,27.80
2018-11-06T03:36:39.778Z,29.83
2018-11-06T03:41:43.601Z,30.13
2018-11-06T03:46:47.545Z,29.63
2018-11-06T03:51:51.377Z,27.97
2018-11-06T03:56:55.433Z,27.57
2018-11-06T04:01:59.244Z,27.77
2018-11-06T04:07:03.133Z,26.40
2018-11-06T04:12:06.985Z,26.60
2018-11-06T04:17:11.032Z,26.87
2018-11-06T04:22:14.805Z,25.07
2018-11-06T04:27:19.468Z,25.33
2018-11-06T04:32:23.335Z,25.40
2018-11-06T04:37:27.336Z,25.10
2018-11-06T04:42:31.396Z,23.77
2018-11-06T04:47:35.426Z,23.90
2018-11-06T04:52:40.438Z,23.40
2018-11-06T04:57:44.323Z,22.37
2018-11-06T05:02:48.579Z,21.53
2018-11-06T05:07:52.379Z,22.90
2018-11-06T05:12:56.419Z,23.63
2018-11-06T05:18:00.201Z,22.30
2018-11-06T05:23:04.886Z,21.47
2018-11-06T05:28:08.693Z,23.10
2018-11-06T05:33:12.481Z,21.47
2018-11-06T05:38:16.303Z,21.50
2018-11-06T05:43:20.093Z,21.40
2018-11-06T05:48:23.931Z,21.07
2018-11-06T05:53:27.719Z,21.87
2018-11-06T05:58:31.566Z,21.63
2018-11-06T06:03:35.349Z,21.03
2018-11-06T06:08:39.167Z,21.87
2018-11-06T06:13:42.993Z,21.27
2018-11-06T06:18:46.841Z,20.40
2018-11-06T06:23:50.716Z,20.03
2018-11-06T06:28:54.772Z,19.87
2018-11-06T06:33:58.890Z,22.20
2018-11-06T06:39:02.722Z,20.73
2018-11-06T06:44:06.898Z,20.90
2018-11-06T06:49:10.702Z,20.50
2018-11-06T06:54:14.770Z,21.97
2018-11-06T06:59:18.488Z,24.27
2018-11-06T07:04:22.270Z,22.43
2018-11-06T07:09:26.294Z,21.13
2018-11-06T07:14:30.094Z,22.97
2018-11-06T07:19:34.178Z,21.23
2018-11-06T07:24:38.193Z,21.57
2018-11-06T07:29:42.210Z,19.40
2018-11-06T07:34:46.408Z,17.92
2018-11-06T07:39:50.063Z,16.67
2018-11-06T07:44:54.099Z,15.30
2018-11-06T07:49:57.927Z,14.07
2018-11-06T07:55:01.910Z,14.33
2018-11-06T08:00:09.557Z,15.03
2018-11-06T08:05:13.715Z,14.87
2018-11-06T08:10:18.093Z,15.23
2018-11-06T08:15:22.204Z,16.37
2018-11-06T08:20:26.028Z,16.07
2018-11-06T08:25:30.089Z,16.23
2018-11-06T08:30:33.961Z,15.23
2018-11-06T08:35:37.674Z,15.60
2018-11-06T08:40:42.460Z,15.53
2018-11-06T08:45:46.510Z,15.70
2018-11-06T08:50:50.567Z,15.77
2018-11-06T08:55:54.366Z,15.70
2018-11-06T09:00:58.167Z,16.87
2018-11-06T09:06:02.226Z,16.27
2018-11-06T09:11:06.046Z,15.63
2018-11-06T09:16:09.854Z,14.80
2018-11-06T09:21:13.647Z,14.23
2018-11-06T09:26:18.494Z,14.27
2018-11-06T09:31:22.290Z,14.43
2018-11-06T09:36:26.603Z,15.03
2018-11-06T09:41:30.430Z,14.13
2018-11-06T09:46:35.419Z,14.03
2018-11-06T09:51:39.278Z,13.93
2018-11-06T09:56:43.079Z,14.40
2018-11-06T10:01:47.919Z,13.90
2018-11-06T10:06:51.985Z,14.93
2018-11-06T10:11:55.529Z,14.57
2018-11-06T10:16:59.319Z,14.17
2018-11-06T10:22:03.354Z,14.83
2018-11-06T10:27:07.147Z,14.05
2018-11-06T10:32:10.926Z,13.87
2018-11-06T10:37:14.734Z,13.80
2018-11-06T10:42:18.542Z,12.80
2018-11-06T10:47:22.564Z,13.03
2018-11-06T10:52:26.598Z,14.00
2018-11-06T10:57:30.674Z,14.37
2018-11-06T11:02:39.898Z,14.43
2018-11-06T11:07:43.725Z,14.57
2018-11-06T11:12:48.534Z,14.50
2018-11-06T11:17:52.630Z,14.10
2018-11-06T11:22:56.646Z,13.77
2018-11-06T11:28:00.675Z,14.43
2018-11-06T11:33:04.734Z,13.77
2018-11-06T11:38:08.564Z,13.17
2018-11-06T11:43:12.321Z,12.67
2018-11-06T11:48:16.367Z,12.47
2018-11-06T11:53:20.282Z,12.73
2018-11-06T11:58:24.293Z,11.80
2018-11-06T12:03:28.317Z,12.00
2018-11-06T12:08:32.378Z,12.13
2018-11-06T12:13:36.702Z,12.20
2018-11-06T12:18:40.497Z,11.60
2018-11-06T12:23:44.277Z,11.47
2018-11-06T12:28:48.359Z,10.83
2018-11-06T12:33:52.143Z,10.73
2018-11-06T12:38:55.922Z,9.83
2018-11-06T12:43:59.727Z,9.30
2018-11-06T12:49:03.529Z,9.03
2018-11-06T12:54:07.570Z,9.23
2018-11-06T12:59:11.366Z,8.27
2018-11-06T13:04:15.157Z,8.40
2018-11-06T13:09:19.830Z,7.83
2018-11-06T13:14:23.613Z,7.97
2018-11-06T13:19:27.643Z,8.07
2018-11-06T13:24:31.425Z,7.27
2018-11-06T13:29:35.446Z,7.53
2018-11-06T13:34:39.466Z,7.40
2018-11-06T13:39:43.510Z,7.07
2018-11-06T13:44:47.847Z,7.50
2018-11-06T13:49:51.638Z,8.10
2018-11-06T13:54:55.419Z,7.13
2018-11-06T14:00:01.499Z,7.77
2018-11-06T14:05:05.481Z,7.37
2018-11-06T14:10:09.578Z,7.10
2018-11-06T14:15:13.393Z,6.80
2018-11-06T14:20:17.254Z,6.67
2018-11-06T14:25:21.265Z,6.70
2018-11-06T14:30:25.057Z,6.90
2018-11-06T14:35:29.080Z,6.40
2018-11-06T14:40:33.240Z,6.17
2018-11-06T14:45:37.037Z,6.93
2018-11-06T14:50:40.834Z,6.53
2018-11-06T14:55:44.855Z,6.07
2018-11-06T15:00:48.632Z,6.20
2018-11-06T15:05:52.398Z,6.17
2018-11-06T15:10:56.204Z,5.80
2018-11-06T15:15:59.992Z,6.10
2018-11-06T15:21:03.849Z,6.20
2018-11-06T15:26:07.637Z,6.20
2018-11-06T15:31:11.643Z,6.20
2018-11-06T15:36:15.443Z,6.47
2018-11-06T15:41:19.891Z,5.90
2018-11-06T15:46:23.518Z,6.13
2018-11-06T15:51:27.303Z,6.67
2018-11-06T15:56:31.343Z,6.60
2018-11-06T16:01:35.406Z,6.53
2018-11-06T16:06:39.292Z,6.77
2018-11-06T16:11:43.311Z,6.72
2018-11-06T16:16:47.125Z,12.57
2018-11-06T16:21:51.156Z,9.07
2018-11-06T16:26:54.962Z,9.17
2018-11-06T16:31:58.753Z,11.50
2018-11-06T16:37:02.823Z,14.70
2018-11-06T16:42:06.625Z,12.50
2018-11-06T16:47:10.455Z,10.80
2018-11-06T16:52:14.492Z,10.50
2018-11-06T16:57:18.358Z,10.82
2018-11-06T17:02:22.145Z,10.43
2018-11-06T17:07:25.937Z,10.93
2018-11-06T17:12:29.721Z,8.80
2018-11-06T17:17:33.503Z,9.30
2018-11-06T17:22:37.318Z,9.07
2018-11-06T17:27:41.133Z,10.20
2018-11-06T17:32:45.052Z,10.13
2018-11-06T17:37:49.141Z,9.90
2018-11-06T17:42:52.926Z,9.23
2018-11-06T17:47:56.841Z,10.07
2018-11-06T17:53:00.636Z,9.33
2018-11-06T17:58:04.714Z,10.37
2018-11-06T18:03:08.526Z,9.70
2018-11-06T18:08:12.314Z,10.73
2018-11-06T18:13:16.392Z,10.93
2018-11-06T18:18:20.426Z,11.00
2018-11-06T18:23:24.291Z,11.70
2018-11-06T18:28:28.071Z,12.10
2018-11-06T18:33:32.163Z,11.57
2018-11-06T18:38:36.204Z,11.40
2018-11-06T18:43:40.039Z,11.97
2018-11-06T18:48:43.866Z,12.37
2018-11-06T18:53:47.917Z,11.07
2018-11-06T18:58:51.950Z,12.00
2018-11-06T19:03:55.773Z,11.57
2018-11-06T19:08:59.799Z,12.00
2018-11-06T19:14:03.674Z,11.33
2018-11-06T19:19:07.866Z,12.00
2018-11-06T19:24:11.714Z,11.60
2018-11-06T19:29:15.693Z,12.30
2018-11-06T19:34:19.558Z,13.10
2018-11-06T19:39:23.582Z,12.57
2018-11-06T19:44:27.369Z,11.97
2018-11-06T19:49:31.201Z,13.47
2018-11-06T19:54:35.053Z,12.57
2018-11-06T19:59:38.790Z,12.97
2018-11-06T20:04:42.586Z,12.40
2018-11-06T20:09:46.557Z,12.83
2018-11-06T20:14:50.229Z,12.43
2018-11-06T20:19:54.069Z,11.87
2018-11-06T20:24:57.874Z,11.50
2018-11-06T20:30:01.883Z,11.90
2018-11-06T20:35:06.647Z,12.73
2018-11-06T20:40:13.333Z,13.17
2018-11-06T20:45:18.496Z,12.43
2018-11-06T20:50:24.108Z,11.80
2018-11-06T20:55:27.968Z,12.33
2018-11-06T21:00:31.946Z,12.87
2018-11-06T21:05:36.016Z,12.53
2018-11-06T21:10:39.834Z,12.30
2018-11-06T21:15:43.847Z,12.23
2018-11-06T21:20:47.902Z,12.77
2018-11-06T21:25:52.189Z,11.43
2018-11-06T21:30:55.755Z,12.97
2018-11-06T21:35:59.816Z,12.70
2018-11-06T21:41:03.618Z,11.87
2018-11-06T21:46:07.643Z,11.90
2018-11-06T21:51:11.450Z,11.77
2018-11-06T21:56:15.588Z,12.30
2018-11-06T22:01:19.618Z,11.80
2018-11-06T22:06:23.978Z,12.40
2018-11-06T22:11:27.789Z,12.43
2018-11-06T22:16:31.863Z,11.87
2018-11-06T22:21:35.732Z,12.77
2018-11-06T22:26:39.529Z,12.20
2018-11-06T22:31:43.508Z,12.03
2018-11-06T22:36:47.234Z,11.90
2018-11-06T22:41:51.218Z,11.97
2018-11-06T22:46:55.320Z,12.37
2018-11-06T22:51:59.117Z,11.83
2018-11-06T22:57:03.242Z,12.20
2018-11-06T23:02:07.029Z,11.97
2018-11-06T23:07:16.211Z,11.47
2018-11-06T23:12:20.131Z,12.53
2018-11-06T23:17:24.167Z,11.93
2018-11-06T23:22:27.987Z,12.93
2018-11-06T23:27:31.807Z,12.90
2018-11-06T23:32:35.836Z,12.93
2018-11-06T23:37:40.639Z,12.23
2018-11-06T23:42:44.663Z,12.30
2018-11-06T23:47:48.774Z,12.40
2018-11-06T23:52:52.781Z,12.37
2018-11-06T23:57:56.586Z,11.15
